createdAt,value
2018-12-12T00:00:24.672Z,17.03
2018-12-12T00:02:53.150Z,14.83
2018-12-12T00:05:21.635Z,17.73
2018-12-12T00:07:50.178Z,18.33
2018-12-12T00:10:19.547Z,17.30
2018-12-12T00:12:49.146Z,18.07
2018-12-12T00:15:18.879Z,14.03
2018-12-12T00:17:48.425Z,17.83
2018-12-12T00:20:17.539Z,18.53
2018-12-12T00:22:46.097Z,18.30
2018-12-12T00:25:14.666Z,15.50
2018-12-12T00:27:43.117Z,23.37
2018-12-12T00:30:11.779Z,21.80
2018-12-12T00:32:40.370Z,18.83
2018-12-12T00:35:09.008Z,17.90
2018-12-12T00:37:37.477Z,16.77
2018-12-12T00:40:06.158Z,20.43
2018-12-12T00:42:34.662Z,20.23
2018-12-12T00:45:03.274Z,17.97
2018-12-12T00:47:31.771Z,21.83
2018-12-12T00:50:00.900Z,21.43
2018-12-12T00:52:29.406Z,20.80
2018-12-12T00:54:58.005Z,17.53
2018-12-12T00:57:26.936Z,17.03
2018-12-12T00:59:55.404Z,23.27
2018-12-12T01:02:23.892Z,18.13
2018-12-12T01:04:52.413Z,19.30
2018-12-12T01:07:20.986Z,16.40
2018-12-12T01:09:50.218Z,19.23
2018-12-12T01:12:18.720Z,19.60
2018-12-12T01:14:47.290Z,18.40
2018-12-12T01:17:15.850Z,18.43
2018-12-12T01:19:44.359Z,22.20
2018-12-12T01:22:12.835Z,17.47
2018-12-12T01:24:41.440Z,17.50
2018-12-12T01:27:09.919Z,18.63
2018-12-12T01:29:38.642Z,15.60
2018-12-12T01:32:07.114Z,16.30
2018-12-12T01:34:35.674Z,19.73
2018-12-12T01:37:04.511Z,17.47
2018-12-12T01:39:33.016Z,18.43
2018-12-12T01:42:01.491Z,19.60
2018-12-12T01:44:29.978Z,20.37
2018-12-12T01:46:58.431Z,19.77
2018-12-12T01:49:27.827Z,19.77
2018-12-12T01:51:56.408Z,18.20
2018-12-12T01:54:24.936Z,21.53
2018-12-12T01:56:53.417Z,22.03
2018-12-12T01:59:22.035Z,19.80
2018-12-12T02:01:50.510Z,20.57
2018-12-12T02:04:19.011Z,24.27
2018-12-12T02:06:47.624Z,21.03
2018-12-12T02:09:16.252Z,21.90
2018-12-12T02:11:44.715Z,20.03
2018-12-12T02:14:13.211Z,18.93
2018-12-12T02:16:41.778Z,18.57
2018-12-12T02:19:10.282Z,20.23
2018-12-12T02:21:38.758Z,19.03
2018-12-12T02:24:08.090Z,20.67
2018-12-12T02:26:36.542Z,21.80
2018-12-12T02:29:05.262Z,18.20
2018-12-12T02:31:33.746Z,22.40
2018-12-12T02:34:02.326Z,19.80
2018-12-12T02:36:31.804Z,15.70
2018-12-12T02:39:00.326Z,14.97
2018-12-12T02:41:28.907Z,21.73
2018-12-12T02:43:57.394Z,17.47
2018-12-12T02:46:26.388Z,17.67
2018-12-12T02:48:55.010Z,17.97
2018-12-12T02:51:23.480Z,19.77
2018-12-12T02:53:52.228Z,15.67
2018-12-12T02:56:20.730Z,15.33
2018-12-12T02:58:50.066Z,18.53
2018-12-12T03:01:18.534Z,15.87
2018-12-12T03:03:47.034Z,19.37
2018-12-12T03:06:15.502Z,17.70
2018-12-12T03:08:44.099Z,21.50
2018-12-12T03:11:14.623Z,18.53
2018-12-12T03:13:43.223Z,17.90
2018-12-12T03:16:12.176Z,17.47
2018-12-12T03:18:40.666Z,19.43
2018-12-12T03:21:09.171Z,18.83
2018-12-12T03:23:37.665Z,19.17
2018-12-12T03:26:06.258Z,18.37
2018-12-12T03:28:34.739Z,18.53
2018-12-12T03:31:03.233Z,19.83
2018-12-12T03:33:31.725Z,25.80
2018-12-12T03:36:00.207Z,17.77
2018-12-12T03:38:28.703Z,18.03
2018-12-12T03:40:57.280Z,19.30
2018-12-12T03:43:25.787Z,22.10
2018-12-12T03:45:54.278Z,21.27
2018-12-12T03:48:22.860Z,19.30
2018-12-12T03:50:51.684Z,23.10
2018-12-12T03:53:20.240Z,18.73
2018-12-12T03:55:48.803Z,18.93
2018-12-12T03:58:17.298Z,22.43
2018-12-12T04:00:45.898Z,22.27
2018-12-12T04:03:14.379Z,16.13
2018-12-12T04:05:42.848Z,21.37
2018-12-12T04:08:11.360Z,19.93
2018-12-12T04:10:39.924Z,20.80
2018-12-12T04:13:08.443Z,17.17
2018-12-12T04:15:37.147Z,17.97
2018-12-12T04:18:05.718Z,24.57
2018-12-12T04:20:34.423Z,21.57
2018-12-12T04:23:02.938Z,17.37
2018-12-12T04:25:31.430Z,25.00
2018-12-12T04:27:59.952Z,20.77
2018-12-12T04:30:28.407Z,20.03
2018-12-12T04:32:56.963Z,18.93
2018-12-12T04:35:25.427Z,20.60
2018-12-12T04:37:54.030Z,18.73
2018-12-12T04:40:22.519Z,19.37
2018-12-12T04:42:51.020Z,15.07
2018-12-12T04:45:19.497Z,19.10
2018-12-12T04:47:48.025Z,18.17
2018-12-12T04:50:16.511Z,17.17
2018-12-12T04:52:45.011Z,17.67
2018-12-12T04:55:13.494Z,15.40
2018-12-12T04:57:41.994Z,16.53
2018-12-12T05:00:10.718Z,16.70
2018-12-12T05:02:39.950Z,17.57
2018-12-12T05:05:08.478Z,19.60
2018-12-12T05:07:37.101Z,20.47
2018-12-12T05:10:06.104Z,20.00
2018-12-12T05:12:34.674Z,16.07
2018-12-12T05:15:03.157Z,17.47
2018-12-12T05:17:31.738Z,16.87
2018-12-12T05:20:00.238Z,16.87
2018-12-12T05:22:28.878Z,18.23
2018-12-12T05:24:57.382Z,16.47
2018-12-12T05:27:25.888Z,18.07
2018-12-12T05:29:54.451Z,17.23
2018-12-12T05:32:23.710Z,16.87
2018-12-12T05:34:52.258Z,21.63
2018-12-12T05:37:20.870Z,17.80
2018-12-12T05:39:49.350Z,14.87
2018-12-12T05:42:17.844Z,21.07
2018-12-12T05:44:46.410Z,16.57
2018-12-12T05:47:14.952Z,19.17
2018-12-12T05:49:43.431Z,14.67
2018-12-12T05:52:12.433Z,17.90
2018-12-12T05:54:40.901Z,17.47
2018-12-12T05:57:09.373Z,17.90
2018-12-12T05:59:37.973Z,19.77
2018-12-12T06:02:06.562Z,16.87
2018-12-12T06:04:35.625Z,14.70
2018-12-12T06:07:06.213Z,17.17
2018-12-12T06:09:35.425Z,19.67
2018-12-12T06:12:05.249Z,14.23
2018-12-12T06:14:34.429Z,19.83
2018-12-12T06:17:03.330Z,16.10
2018-12-12T06:19:31.943Z,21.53
2018-12-12T06:22:00.722Z,15.73
2018-12-12T06:24:29.626Z,15.23
2018-12-12T06:26:58.402Z,17.60
2018-12-12T06:29:27.423Z,16.57
2018-12-12T06:31:56.306Z,18.63
2018-12-12T06:34:25.173Z,14.50
2018-12-12T06:36:54.824Z,16.10
2018-12-12T06:39:23.485Z,12.50
2018-12-12T06:41:52.606Z,16.63
2018-12-12T06:44:21.387Z,12.77
2018-12-12T06:46:50.062Z,16.00
2018-12-12T06:49:18.838Z,13.60
2018-12-12T06:51:47.802Z,12.13
2018-12-12T06:54:16.497Z,12.27
2018-12-12T06:56:46.070Z,16.13
2018-12-12T06:59:14.650Z,13.70
2018-12-12T07:01:43.714Z,11.67
2018-12-12T07:04:12.299Z,13.13
2018-12-12T07:06:40.968Z,12.40
2018-12-12T07:09:10.855Z,14.00
2018-12-12T07:11:39.355Z,14.50
2018-12-12T07:14:07.845Z,15.17
2018-12-12T07:16:36.361Z,11.97
2018-12-12T07:19:04.930Z,12.13
2018-12-12T07:21:33.458Z,14.13
2018-12-12T07:24:01.957Z,12.60
2018-12-12T07:26:30.489Z,15.00
2018-12-12T07:28:58.998Z,13.60
2018-12-12T07:31:27.507Z,15.47
2018-12-12T07:34:00.947Z,12.67
2018-12-12T07:36:26.991Z,14.47
2018-12-12T07:38:55.530Z,17.30
2018-12-12T07:41:24.470Z,18.53
2018-12-12T07:43:53.009Z,21.27
2018-12-12T07:46:22.475Z,14.50
2018-12-12T07:48:51.255Z,12.90
2018-12-12T07:51:19.794Z,16.07
2018-12-12T07:53:48.446Z,13.77
2018-12-12T07:56:16.958Z,12.73
2018-12-12T07:58:45.429Z,12.03
2018-12-12T08:01:14.049Z,14.57
2018-12-12T08:03:42.510Z,14.33
2018-12-12T08:06:11.015Z,14.63
2018-12-12T08:08:39.638Z,10.70
2018-12-12T08:11:08.114Z,12.30
2018-12-12T08:13:36.571Z,10.17
2018-12-12T08:16:05.242Z,13.20
2018-12-12T08:18:33.698Z,8.50
2018-12-12T08:21:02.408Z,13.17
2018-12-12T08:23:31.322Z,14.70
2018-12-12T08:25:59.934Z,11.30
2018-12-12T08:28:28.506Z,9.13
2018-12-12T08:30:57.070Z,12.63
2018-12-12T08:33:25.560Z,9.40
2018-12-12T08:35:54.050Z,11.00
2018-12-12T08:38:22.578Z,9.50
2018-12-12T08:40:51.077Z,7.43
2018-12-12T08:43:19.618Z,10.83
2018-12-12T08:45:48.145Z,12.10
2018-12-12T08:48:16.705Z,6.17
2018-12-12T08:50:45.212Z,8.40
2018-12-12T08:53:13.878Z,6.53
2018-12-12T08:55:42.378Z,8.03
2018-12-12T08:58:10.851Z,6.00
2018-12-12T09:00:39.353Z,6.77
2018-12-12T09:03:07.804Z,5.43
2018-12-12T09:05:36.333Z,7.53
2018-12-12T09:08:04.827Z,9.93
2018-12-12T09:10:33.538Z,7.20
2018-12-12T09:13:01.985Z,8.20
2018-12-12T09:15:30.475Z,8.20
2018-12-12T09:17:59.148Z,6.77
2018-12-12T09:20:27.651Z,9.33
2018-12-12T09:22:56.138Z,7.00
2018-12-12T09:25:24.619Z,7.33
2018-12-12T09:27:53.131Z,5.57
2018-12-12T09:30:21.750Z,7.97
2018-12-12T09:32:50.253Z,7.47
2018-12-12T09:35:18.738Z,9.47
2018-12-12T09:37:47.245Z,8.07
2018-12-12T09:40:15.775Z,6.23
2018-12-12T09:42:44.332Z,6.53
2018-12-12T09:45:12.847Z,6.63
2018-12-12T09:47:41.592Z,6.60
2018-12-12T09:50:10.092Z,9.83
2018-12-12T09:52:38.690Z,9.67
2018-12-12T09:55:07.335Z,6.20
2018-12-12T09:57:36.377Z,7.13
2018-12-12T10:00:05.410Z,10.23
2018-12-12T10:02:34.518Z,7.60
2018-12-12T10:05:03.071Z,7.60
2018-12-12T10:07:31.559Z,7.70
2018-12-12T10:10:00.104Z,5.60
2018-12-12T10:12:28.631Z,6.77
2018-12-12T10:14:57.222Z,7.23
2018-12-12T10:17:25.697Z,6.03
2018-12-12T10:19:54.328Z,6.47
2018-12-12T10:22:22.867Z,5.90
2018-12-12T10:24:51.343Z,5.63
2018-12-12T10:27:19.977Z,6.87
2018-12-12T10:29:49.229Z,5.80
2018-12-12T10:32:17.732Z,8.23
2018-12-12T10:34:46.299Z,6.37
2018-12-12T10:37:14.797Z,6.00
2018-12-12T10:39:43.292Z,5.97
2018-12-12T10:42:12.049Z,5.03
2018-12-12T10:44:40.604Z,5.57
2018-12-12T10:47:09.095Z,8.20
2018-12-12T10:49:37.656Z,8.53
2018-12-12T10:52:06.241Z,6.80
2018-12-12T10:54:34.727Z,10.20
2018-12-12T10:57:03.233Z,6.40
2018-12-12T10:59:31.735Z,7.10
2018-12-12T11:02:33.038Z,5.37
2018-12-12T11:05:01.560Z,6.10
2018-12-12T11:07:30.095Z,3.90
2018-12-12T11:09:58.716Z,5.43
2018-12-12T11:12:27.209Z,3.90
2018-12-12T11:14:55.721Z,3.50
2018-12-12T11:17:24.270Z,3.20
2018-12-12T11:19:52.867Z,3.63
2018-12-12T11:22:22.013Z,2.87
2018-12-12T11:24:50.513Z,3.03
2018-12-12T11:27:19.332Z,4.10
2018-12-12T11:29:48.754Z,3.97
2018-12-12T11:32:17.223Z,2.60
2018-12-12T11:34:45.708Z,3.43
2018-12-12T11:37:14.210Z,3.00
2018-12-12T11:39:42.760Z,2.43
2018-12-12T11:42:11.286Z,2.87
2018-12-12T11:44:39.779Z,2.80
2018-12-12T11:47:08.324Z,3.40
2018-12-12T11:49:36.811Z,5.03
2018-12-12T11:52:05.572Z,3.63
2018-12-12T11:54:34.823Z,3.07
2018-12-12T11:57:03.641Z,3.37
2018-12-12T11:59:32.185Z,3.07
2018-12-12T12:02:00.683Z,2.43
2018-12-12T12:04:29.202Z,2.30
2018-12-12T12:06:57.679Z,3.57
2018-12-12T12:09:26.183Z,1.90
2018-12-12T12:11:54.833Z,1.50
2018-12-12T12:14:23.338Z,1.20
2018-12-12T12:16:51.848Z,1.30
2018-12-12T12:19:21.617Z,1.70
2018-12-12T12:21:50.082Z,1.60
2018-12-12T12:24:18.686Z,1.83
2018-12-12T12:26:50.532Z,1.80
2018-12-12T12:29:20.163Z,2.43
2018-12-12T12:31:48.904Z,3.37
2018-12-12T12:34:17.390Z,2.00
2018-12-12T12:36:46.794Z,1.80
2018-12-12T12:39:15.290Z,2.00
2018-12-12T12:41:43.847Z,2.10
2018-12-12T12:44:12.516Z,2.57
2018-12-12T12:46:40.985Z,2.23
2018-12-12T12:49:10.318Z,1.77
2018-12-12T12:51:38.897Z,3.07
2018-12-12T12:54:08.329Z,5.97
2018-12-12T12:56:36.811Z,1.60
2018-12-12T12:59:05.320Z,1.97
2018-12-12T13:01:33.986Z,1.63
2018-12-12T13:04:02.959Z,1.73
2018-12-12T13:06:31.668Z,1.20
2018-12-12T13:09:00.130Z,1.20
2018-12-12T13:11:28.640Z,1.07
2018-12-12T13:13:57.219Z,0.80
2018-12-12T13:16:25.730Z,1.00
2018-12-12T13:18:54.919Z,1.20
2018-12-12T13:21:23.398Z,0.70
2018-12-12T13:23:51.924Z,0.90
2018-12-12T13:26:20.411Z,0.80
2018-12-12T13:28:49.005Z,1.50
2018-12-12T13:31:19.003Z,2.60
2018-12-12T13:33:47.916Z,1.77
2018-12-12T13:36:16.422Z,1.10
2018-12-12T13:38:44.928Z,1.73
2018-12-12T13:41:13.460Z,0.90
2018-12-12T13:43:42.887Z,1.07
2018-12-12T13:46:11.378Z,1.03
2018-12-12T13:48:39.935Z,1.23
2018-12-12T13:51:08.447Z,1.03
2018-12-12T13:53:36.970Z,2.17
2018-12-12T13:56:05.590Z,2.07
2018-12-12T13:58:34.160Z,1.57
2018-12-12T14:01:02.648Z,1.50
2018-12-12T14:03:31.130Z,1.17
2018-12-12T14:05:59.605Z,1.50
2018-12-12T14:08:28.198Z,1.10
2018-12-12T14:10:56.738Z,0.93
2018-12-12T14:13:28.618Z,1.60
2018-12-12T14:15:58.975Z,1.10
2018-12-12T14:18:27.536Z,1.57
2018-12-12T14:20:56.075Z,2.10
2018-12-12T14:23:24.968Z,1.30
2018-12-12T14:25:53.852Z,1.10
2018-12-12T14:28:22.557Z,1.43
2018-12-12T14:30:51.084Z,1.30
2018-12-12T14:33:19.658Z,1.50
2018-12-12T14:35:48.326Z,6.10
2018-12-12T14:38:17.206Z,2.13
2018-12-12T14:40:45.752Z,2.10
2018-12-12T14:43:14.259Z,3.60
2018-12-12T14:45:42.858Z,1.57
2018-12-12T14:48:11.467Z,2.33
2018-12-12T14:50:39.979Z,2.17
2018-12-12T14:53:08.577Z,3.50
2018-12-12T14:55:37.586Z,2.13
2018-12-12T14:58:06.238Z,3.50
2018-12-12T15:00:34.868Z,1.70
2018-12-12T15:03:03.435Z,1.90
2018-12-12T15:05:32.614Z,2.30
2018-12-12T15:08:01.102Z,3.60
2018-12-12T15:10:30.511Z,1.73
2018-12-12T15:12:59.027Z,1.30
2018-12-12T15:15:27.533Z,2.00
2018-12-12T15:17:56.151Z,2.50
2018-12-12T15:20:25.343Z,1.47
2018-12-12T15:22:54.913Z,1.00
2018-12-12T15:25:23.505Z,2.47
2018-12-12T15:27:54.048Z,0.80
2018-12-12T15:30:22.660Z,1.10
2018-12-12T15:32:51.192Z,1.20
2018-12-12T15:35:19.802Z,0.80
2018-12-12T15:37:48.793Z,1.27
2018-12-12T15:40:17.285Z,0.97
2018-12-12T15:42:45.784Z,1.33
2018-12-12T15:45:14.371Z,5.73
2018-12-12T15:47:43.194Z,1.07
2018-12-12T15:50:11.781Z,0.77
2018-12-12T15:52:41.050Z,1.10
2018-12-12T15:55:09.606Z,0.67
2018-12-12T15:57:38.606Z,0.93
2018-12-12T16:00:08.484Z,1.00
2018-12-12T16:02:37.850Z,1.13
2018-12-12T16:05:06.482Z,1.00
2018-12-12T16:07:35.044Z,1.73
2018-12-12T16:10:03.906Z,1.03
2018-12-12T16:12:32.640Z,0.90
2018-12-12T16:15:01.222Z,1.27
2018-12-12T16:17:29.813Z,0.80
2018-12-12T16:20:00.245Z,1.30
2018-12-12T16:22:28.852Z,1.10
2018-12-12T16:24:57.325Z,1.37
2018-12-12T16:27:25.801Z,1.70
2018-12-12T16:29:54.285Z,1.63
2018-12-12T16:32:22.760Z,1.20
2018-12-12T16:34:55.600Z,1.27
2018-12-12T16:37:21.779Z,1.17
2018-12-12T16:39:50.245Z,1.47
2018-12-12T16:42:18.827Z,2.17
2018-12-12T16:44:47.342Z,1.40
2018-12-12T16:47:15.837Z,1.63
2018-12-12T16:49:44.415Z,2.03
2018-12-12T16:52:12.920Z,2.70
2018-12-12T16:54:41.487Z,2.00
2018-12-12T16:57:09.970Z,2.50
2018-12-12T16:59:38.454Z,1.70
2018-12-12T17:02:08.116Z,4.27
2018-12-12T17:04:36.650Z,1.13
2018-12-12T17:07:06.047Z,1.40
2018-12-12T17:09:34.547Z,1.67
2018-12-12T17:12:03.025Z,1.77
2018-12-12T17:14:31.540Z,2.37
2018-12-12T17:17:00.653Z,2.00
2018-12-12T17:19:29.296Z,2.37
2018-12-12T17:21:58.305Z,1.77
2018-12-12T17:24:26.777Z,2.30
2018-12-12T17:26:55.299Z,1.77
2018-12-12T17:29:23.771Z,3.27
2018-12-12T17:31:52.274Z,1.77
2018-12-12T17:34:20.847Z,3.90
2018-12-12T17:36:49.341Z,2.67
2018-12-12T17:39:17.907Z,2.73
2018-12-12T17:41:46.416Z,2.67
2018-12-12T17:44:14.901Z,3.93
2018-12-12T17:46:44.114Z,5.33
2018-12-12T17:49:12.591Z,3.40
2018-12-12T17:51:41.080Z,3.13
2018-12-12T17:54:09.654Z,3.60
2018-12-12T17:56:38.382Z,3.47
2018-12-12T17:59:07.088Z,2.50
2018-12-12T18:01:35.811Z,2.83
2018-12-12T18:04:04.286Z,4.30
2018-12-12T18:06:32.840Z,3.83
2018-12-12T18:09:01.428Z,3.03
2018-12-12T18:11:29.942Z,3.43
2018-12-12T18:14:00.079Z,4.57
2018-12-12T18:16:29.554Z,3.87
2018-12-12T18:18:59.155Z,3.00
2018-12-12T18:21:28.606Z,3.10
2018-12-12T18:23:57.071Z,4.20
2018-12-12T18:26:25.574Z,3.63
2018-12-12T18:28:54.187Z,3.87
2018-12-12T18:31:22.704Z,4.93
2018-12-12T18:33:51.357Z,4.33
2018-12-12T18:36:19.924Z,5.73
2018-12-12T18:38:48.411Z,5.57
2018-12-12T18:41:16.887Z,4.43
2018-12-12T18:43:45.598Z,4.50
2018-12-12T18:46:15.410Z,4.10
2018-12-12T18:48:44.200Z,3.90
2018-12-12T18:51:12.742Z,7.23
2018-12-12T18:53:41.256Z,5.10
2018-12-12T18:56:09.782Z,4.93
2018-12-12T18:58:39.049Z,4.27
2018-12-12T19:01:07.570Z,4.43
2018-12-12T19:03:36.046Z,5.10
2018-12-12T19:06:04.556Z,4.80
2018-12-12T19:08:34.856Z,4.93
2018-12-12T19:11:05.439Z,6.13
2018-12-12T19:13:35.696Z,4.97
2018-12-12T19:16:04.363Z,4.77
2018-12-12T19:18:33.120Z,5.37
2018-12-12T19:21:01.667Z,4.93
2018-12-12T19:23:30.371Z,6.47
2018-12-12T19:25:58.922Z,6.63
2018-12-12T19:28:27.474Z,7.23
2018-12-12T19:30:55.970Z,7.63
2018-12-12T19:33:24.626Z,9.77
2018-12-12T19:35:53.991Z,6.83
2018-12-12T19:38:22.526Z,11.63
2018-12-12T19:40:51.169Z,6.17
2018-12-12T19:43:19.914Z,5.60
2018-12-12T19:45:48.444Z,5.60
2018-12-12T19:48:16.962Z,5.73
2018-12-12T19:50:45.526Z,5.53
2018-12-12T19:53:14.865Z,6.13
2018-12-12T19:55:44.801Z,6.83
2018-12-12T19:58:13.949Z,6.03
2018-12-12T20:00:42.538Z,5.53
2018-12-12T20:03:12.101Z,6.07
2018-12-12T20:05:41.458Z,8.03
2018-12-12T20:08:10.347Z,6.33
2018-12-12T20:10:38.962Z,7.40
2018-12-12T20:13:08.073Z,8.20
2018-12-12T20:15:41.788Z,7.40
2018-12-12T20:18:12.532Z,7.53
2018-12-12T20:20:41.495Z,14.13
2018-12-12T20:23:13.190Z,13.83
2018-12-12T20:25:47.857Z,9.10
2018-12-12T20:28:22.792Z,7.43
2018-12-12T20:31:01.051Z,8.77
2018-12-12T20:33:43.898Z,6.73
2018-12-12T20:36:16.221Z,5.90
2018-12-12T20:38:51.884Z,6.60
2018-12-12T20:41:23.799Z,5.77
2018-12-12T20:43:57.007Z,6.63
2018-12-12T20:46:25.715Z,7.53
2018-12-12T20:48:54.293Z,7.87
2018-12-12T20:51:23.660Z,11.47
2018-12-12T20:56:45.590Z,5.90
2018-12-12T20:59:14.696Z,25.30
2018-12-12T21:01:43.943Z,24.83
2018-12-12T21:04:12.616Z,6.73
2018-12-12T21:09:38.102Z,8.77
2018-12-12T21:12:07.179Z,8.03
2018-12-12T21:14:37.027Z,8.17
2018-12-12T21:17:07.702Z,5.77
2018-12-12T21:19:37.781Z,8.07
2018-12-12T21:22:08.508Z,8.67
2018-12-12T21:24:37.431Z,9.77
2018-12-12T21:27:06.285Z,8.70
2018-12-12T21:29:35.122Z,10.37
2018-12-12T21:32:03.835Z,6.13
2018-12-12T21:34:33.026Z,7.17
2018-12-12T21:37:02.011Z,7.40
2018-12-12T21:39:31.091Z,8.30
2018-12-12T21:41:59.944Z,7.37
2018-12-12T21:44:29.371Z,7.17
2018-12-12T21:46:58.090Z,9.10
2018-12-12T21:49:26.776Z,7.00
2018-12-12T21:51:55.514Z,7.70
2018-12-12T21:54:24.084Z,7.00
2018-12-12T21:56:53.130Z,8.30
2018-12-12T21:59:21.704Z,6.83
2018-12-12T22:01:50.180Z,7.53
2018-12-12T22:04:20.035Z,7.40
2018-12-12T22:06:48.808Z,7.30
2018-12-12T22:09:17.471Z,8.70
2018-12-12T22:11:46.160Z,6.47
2018-12-12T22:14:15.257Z,6.40
2018-12-12T22:16:44.270Z,8.43
2018-12-12T22:19:12.858Z,7.57
2018-12-12T22:21:42.395Z,9.60
2018-12-12T22:24:11.354Z,7.40
2018-12-12T22:26:40.151Z,6.73
2018-12-12T22:29:09.022Z,7.53
2018-12-12T22:31:37.947Z,8.63
2018-12-12T22:34:06.737Z,7.97
2018-12-12T22:36:35.259Z,7.97
2018-12-12T22:39:05.542Z,8.83
2018-12-12T22:41:34.119Z,10.13
2018-12-12T22:44:03.191Z,6.90
2018-12-12T22:46:31.980Z,10.30
2018-12-12T22:49:00.715Z,9.80
2018-12-12T22:51:31.515Z,8.30
2018-12-12T22:54:00.438Z,11.63
2018-12-12T22:56:29.405Z,8.60
2018-12-12T22:58:58.330Z,9.23
2018-12-12T23:01:27.238Z,8.83
2018-12-12T23:04:03.591Z,9.10
2018-12-12T23:06:33.187Z,10.37
2018-12-12T23:09:02.197Z,10.07
2018-12-12T23:11:31.594Z,11.23
2018-12-12T23:14:00.524Z,11.18
2018-12-12T23:16:29.399Z,8.73
2018-12-12T23:18:58.280Z,8.60
2018-12-12T23:21:27.117Z,10.57
2018-12-12T23:23:56.144Z,9.67
2018-12-12T23:26:25.056Z,8.80
2018-12-12T23:28:54.088Z,9.40
2018-12-12T23:31:22.683Z,11.37
2018-12-12T23:33:51.784Z,9.93
2018-12-12T23:36:26.794Z,9.00
2018-12-12T23:38:50.910Z,9.83
2018-12-12T23:41:19.378Z,9.67
2018-12-12T23:43:47.882Z,8.20
2018-12-12T23:46:16.781Z,7.43
2018-12-12T23:48:45.315Z,9.67
2018-12-12T23:51:13.787Z,8.77
2018-12-12T23:53:42.338Z,8.93
2018-12-12T23:56:10.850Z,7.63
2018-12-12T23:58:39.410Z,10.27
